RYR8599 LICR-LEBL
Flight info
| Callsign | RYR8599 |
|---|---|
| Flight time | 1h 43m |
| Altitude | 38000 |
| Route | PAZZE L869 BUDIN DCT NERAR DCT AMANO DCT QUENN DCT EPIKU DCT GINOX DCT KIFMI DCT ELVOP DCT MUREN DCT CHELY DCT VERSO |
| Aircraft | B738/M-SDE3FGILRWY/SB1 |
Departure
| Time | 2026-04-15 11:12 |
|---|---|
| Airport | Reggio Calabria Airport (LICR) |
Arrival
| Time | 2026-04-15 12:55 |
|---|---|
| Airport | Josep Tarradellas Barcelona-El Prat Airport (LEBL) |
| Time | Latitude | Longitude | Altitude | Speed | Heading |
|---|---|---|---|---|---|
| 2026-04-15 10:52 | 38.07254 | 15.65368 | 49 ft | 0 kts | 121° |
| 2026-04-15 11:07 | 38.07253 | 15.65370 | 49 ft | 1 kts | 128° |
| 2026-04-15 11:07 | 38.07245 | 15.65362 | 49 ft | 2 kts | 241° |
| 2026-04-15 11:07 | 38.07235 | 15.65332 | 49 ft | 4 kts | 254° |
| 2026-04-15 11:08 | 38.07256 | 15.65303 | 49 ft | 6 kts | 332° |
| 2026-04-15 11:08 | 38.07299 | 15.65276 | 48 ft | 8 kts | 333° |
| 2026-04-15 11:08 | 38.07337 | 15.65218 | 48 ft | 10 kts | 252° |
| 2026-04-15 11:08 | 38.07299 | 15.65124 | 48 ft | 14 kts | 242° |
| 2026-04-15 11:09 | 38.07213 | 15.65097 | 44 ft | 18 kts | 152° |
| 2026-04-15 11:09 | 38.07084 | 15.65181 | 40 ft | 23 kts | 153° |
| 2026-04-15 11:09 | 38.06927 | 15.65283 | 35 ft | 26 kts | 153° |
| 2026-04-15 11:09 | 38.06772 | 15.65384 | 33 ft | 24 kts | 153° |
| 2026-04-15 11:10 | 38.06627 | 15.65478 | 32 ft | 22 kts | 153° |
| 2026-04-15 11:10 | 38.06520 | 15.65560 | 32 ft | 14 kts | 121° |
| 2026-04-15 11:10 | 38.06471 | 15.65642 | 32 ft | 7 kts | 182° |
| 2026-04-15 11:10 | 38.06455 | 15.65602 | 32 ft | 6 kts | 277° |
| 2026-04-15 11:11 | 38.06484 | 15.65570 | 32 ft | 6 kts | 334° |
| 2026-04-15 11:11 | 38.06503 | 15.65558 | 30 ft | 0 kts | 333° |
| 2026-04-15 11:11 | 38.06512 | 15.65552 | 29 ft | 15 kts | 333° |
| 2026-04-15 11:11 | 38.06883 | 15.65312 | 35 ft | 102 kts | 332° |
| 2026-04-15 11:12 | 38.07734 | 15.64763 | 150 ft | 162 kts | 332° |
| 2026-04-15 11:12 | 38.08758 | 15.64108 | 983 ft | 169 kts | 337° |
| 2026-04-15 11:12 | 38.09831 | 15.63561 | 2027 ft | 164 kts | 340° |
| 2026-04-15 11:12 | 38.10975 | 15.63004 | 2498 ft | 193 kts | 339° |
| 2026-04-15 11:13 | 38.12316 | 15.62342 | 2957 ft | 215 kts | 338° |
| 2026-04-15 11:13 | 38.13234 | 15.61884 | 3480 ft | 214 kts | 338° |
| 2026-04-15 11:13 | 38.14652 | 15.61165 | 4060 ft | 224 kts | 340° |
| 2026-04-15 11:13 | 38.16249 | 15.60685 | 4374 ft | 248 kts | 351° |
| 2026-04-15 11:14 | 38.17994 | 15.60361 | 4909 ft | 263 kts | 352° |
| 2026-04-15 11:14 | 38.19895 | 15.60019 | 5357 ft | 283 kts | 351° |
| 2026-04-15 11:14 | 38.21862 | 15.59650 | 6237 ft | 287 kts | 350° |
| 2026-04-15 11:14 | 38.23854 | 15.59259 | 7047 ft | 292 kts | 349° |
| 2026-04-15 11:15 | 38.25885 | 15.58846 | 7837 ft | 299 kts | 349° |
| 2026-04-15 11:15 | 38.27952 | 15.58417 | 8661 ft | 304 kts | 348° |
| 2026-04-15 11:15 | 38.30045 | 15.57980 | 9554 ft | 306 kts | 348° |
| 2026-04-15 11:15 | 38.32166 | 15.57535 | 10268 ft | 314 kts | 348° |
| 2026-04-15 11:16 | 38.34405 | 15.57062 | 10519 ft | 339 kts | 348° |
| 2026-04-15 11:16 | 38.36800 | 15.56556 | 10885 ft | 356 kts | 349° |
| 2026-04-15 11:16 | 38.39275 | 15.56037 | 11579 ft | 362 kts | 349° |
| 2026-04-15 11:16 | 38.41768 | 15.55515 | 12417 ft | 364 kts | 349° |
| 2026-04-15 11:17 | 38.44280 | 15.54988 | 13230 ft | 367 kts | 349° |
| 2026-04-15 11:17 | 38.46817 | 15.54454 | 13968 ft | 372 kts | 349° |
| 2026-04-15 11:17 | 38.49383 | 15.53910 | 14638 ft | 376 kts | 348° |
| 2026-04-15 11:17 | 38.51842 | 15.52817 | 15264 ft | 376 kts | 327° |
| 2026-04-15 11:18 | 38.53798 | 15.50710 | 15943 ft | 373 kts | 306° |
| 2026-04-15 11:18 | 38.55076 | 15.47823 | 16619 ft | 369 kts | 285° |
| 2026-04-15 11:18 | 38.55524 | 15.44620 | 17277 ft | 366 kts | 267° |
| 2026-04-15 11:18 | 38.55194 | 15.41463 | 17905 ft | 364 kts | 252° |
| 2026-04-15 11:19 | 38.54510 | 15.38337 | 18536 ft | 367 kts | 250° |
| 2026-04-15 11:19 | 38.53772 | 15.35202 | 19132 ft | 370 kts | 250° |
| 2026-04-15 11:19 | 38.53031 | 15.32050 | 19758 ft | 372 kts | 250° |
| 2026-04-15 11:19 | 38.52298 | 15.28878 | 20376 ft | 374 kts | 250° |
| 2026-04-15 11:20 | 38.51571 | 15.25680 | 20976 ft | 376 kts | 250° |
| 2026-04-15 11:20 | 38.50846 | 15.22455 | 21568 ft | 379 kts | 250° |
| 2026-04-15 11:20 | 38.50119 | 15.19209 | 22144 ft | 381 kts | 250° |
| 2026-04-15 11:20 | 38.49386 | 15.15942 | 22730 ft | 384 kts | 250° |
| 2026-04-15 11:21 | 38.48873 | 15.12575 | 23258 ft | 394 kts | 264° |
| 2026-04-15 11:21 | 38.49228 | 15.09064 | 23747 ft | 407 kts | 283° |
| 2026-04-15 11:21 | 38.50456 | 15.05768 | 24214 ft | 419 kts | 300° |
| 2026-04-15 11:21 | 38.52483 | 15.03020 | 24629 ft | 432 kts | 316° |
| 2026-04-15 11:22 | 38.54864 | 15.00646 | 25045 ft | 437 kts | 319° |
| 2026-04-15 11:22 | 38.57315 | 14.98325 | 25420 ft | 441 kts | 319° |
| 2026-04-15 11:22 | 38.59805 | 14.95995 | 25811 ft | 445 kts | 319° |
| 2026-04-15 11:22 | 38.62307 | 14.93642 | 26228 ft | 447 kts | 319° |
| 2026-04-15 11:23 | 38.64810 | 14.91260 | 26627 ft | 450 kts | 319° |
| 2026-04-15 11:23 | 38.67317 | 14.88848 | 27012 ft | 453 kts | 318° |
| 2026-04-15 11:23 | 38.69837 | 14.86404 | 27397 ft | 455 kts | 318° |
| 2026-04-15 11:23 | 38.72364 | 14.83943 | 27772 ft | 458 kts | 317° |
| 2026-04-15 11:24 | 38.74906 | 14.81460 | 28137 ft | 461 kts | 317° |
| 2026-04-15 11:24 | 38.77465 | 14.78956 | 28487 ft | 464 kts | 317° |
| 2026-04-15 11:24 | 38.80036 | 14.76440 | 28848 ft | 467 kts | 317° |
| 2026-04-15 11:24 | 38.82592 | 14.73935 | 29192 ft | 469 kts | 317° |
| 2026-04-15 11:25 | 38.85194 | 14.71385 | 29529 ft | 472 kts | 317° |
| 2026-04-15 11:25 | 38.87810 | 14.68819 | 29839 ft | 475 kts | 317° |
| 2026-04-15 11:25 | 38.90443 | 14.66235 | 30121 ft | 477 kts | 317° |
| 2026-04-15 11:25 | 38.93087 | 14.63637 | 30408 ft | 479 kts | 317° |
| 2026-04-15 11:26 | 38.95736 | 14.61033 | 30716 ft | 480 kts | 318° |
| 2026-04-15 11:26 | 38.98389 | 14.58422 | 31011 ft | 481 kts | 318° |
| 2026-04-15 11:26 | 39.01045 | 14.55806 | 31405 ft | 479 kts | 318° |
| 2026-04-15 11:26 | 39.03681 | 14.53207 | 31853 ft | 476 kts | 318° |
| 2026-04-15 11:27 | 39.06303 | 14.50620 | 32278 ft | 474 kts | 319° |
| 2026-04-15 11:27 | 39.08877 | 14.48076 | 32664 ft | 473 kts | 319° |
| 2026-04-15 11:27 | 39.11481 | 14.45499 | 33014 ft | 472 kts | 319° |
| 2026-04-15 11:27 | 39.14077 | 14.42927 | 33383 ft | 470 kts | 319° |
| 2026-04-15 11:28 | 39.16666 | 14.40360 | 33774 ft | 469 kts | 319° |
| 2026-04-15 11:28 | 39.19245 | 14.37800 | 34094 ft | 467 kts | 319° |
| 2026-04-15 11:28 | 39.21827 | 14.35235 | 34364 ft | 467 kts | 319° |
| 2026-04-15 11:28 | 39.24407 | 14.32670 | 34616 ft | 467 kts | 319° |
| 2026-04-15 11:29 | 39.26959 | 14.30094 | 34877 ft | 465 kts | 316° |
| 2026-04-15 11:29 | 39.29186 | 14.27108 | 35123 ft | 460 kts | 304° |
| 2026-04-15 11:29 | 39.30953 | 14.23696 | 35381 ft | 455 kts | 295° |
| 2026-04-15 11:29 | 39.32238 | 14.19990 | 35598 ft | 450 kts | 285° |
| 2026-04-15 11:30 | 39.33203 | 14.16154 | 35825 ft | 450 kts | 284° |
| 2026-04-15 11:30 | 39.34128 | 14.12293 | 36033 ft | 450 kts | 284° |
| 2026-04-15 11:30 | 39.35054 | 14.08432 | 36266 ft | 450 kts | 284° |
| 2026-04-15 11:30 | 39.35992 | 14.04582 | 36517 ft | 449 kts | 284° |
| 2026-04-15 11:31 | 39.36943 | 14.00742 | 36738 ft | 449 kts | 285° |
| 2026-04-15 11:31 | 39.37891 | 13.96947 | 36929 ft | 449 kts | 285° |
| 2026-04-15 11:31 | 39.38853 | 13.93109 | 37143 ft | 449 kts | 285° |
| 2026-04-15 11:31 | 39.39814 | 13.89271 | 37373 ft | 448 kts | 285° |
| 2026-04-15 11:32 | 39.40772 | 13.85439 | 37602 ft | 448 kts | 285° |
| 2026-04-15 11:32 | 39.41728 | 13.81604 | 37763 ft | 448 kts | 285° |
| 2026-04-15 11:32 | 39.42680 | 13.77767 | 37923 ft | 449 kts | 285° |
| 2026-04-15 11:32 | 39.43628 | 13.73908 | 37909 ft | 451 kts | 285° |
| 2026-04-15 11:33 | 39.45511 | 13.66174 | 37916 ft | 449 kts | 285° |
| 2026-04-15 11:33 | 39.47380 | 13.58475 | 37926 ft | 447 kts | 285° |
| 2026-04-15 11:34 | 39.49233 | 13.50822 | 37920 ft | 445 kts | 285° |
| 2026-04-15 11:34 | 39.51077 | 13.43186 | 37926 ft | 444 kts | 285° |
| 2026-04-15 11:35 | 39.52914 | 13.35557 | 37928 ft | 444 kts | 285° |
| 2026-04-15 11:35 | 39.54751 | 13.27903 | 37937 ft | 446 kts | 285° |
| 2026-04-15 11:36 | 39.56590 | 13.20212 | 37932 ft | 448 kts | 285° |
| 2026-04-15 11:36 | 39.58433 | 13.12481 | 37934 ft | 451 kts | 285° |
| 2026-04-15 11:37 | 39.60273 | 13.04737 | 37933 ft | 453 kts | 285° |
| 2026-04-15 11:37 | 39.62129 | 12.96905 | 37935 ft | 456 kts | 285° |
| 2026-04-15 11:38 | 39.63988 | 12.89027 | 37931 ft | 458 kts | 285° |
| 2026-04-15 11:38 | 39.65852 | 12.81106 | 37933 ft | 459 kts | 285° |
| 2026-04-15 11:39 | 39.67712 | 12.73173 | 37936 ft | 460 kts | 285° |
| 2026-04-15 11:39 | 39.69571 | 12.65217 | 37931 ft | 460 kts | 285° |
| 2026-04-15 11:40 | 39.71420 | 12.57276 | 37933 ft | 459 kts | 285° |
| 2026-04-15 11:40 | 39.73263 | 12.49335 | 37925 ft | 458 kts | 285° |
| 2026-04-15 11:41 | 39.75083 | 12.41462 | 37940 ft | 456 kts | 285° |
| 2026-04-15 11:41 | 39.76902 | 12.33568 | 37934 ft | 455 kts | 285° |
| 2026-04-15 11:42 | 39.78711 | 12.25690 | 37939 ft | 454 kts | 285° |
| 2026-04-15 11:42 | 39.80510 | 12.17829 | 37938 ft | 453 kts | 285° |
| 2026-04-15 11:43 | 39.82299 | 12.09984 | 37936 ft | 452 kts | 285° |
| 2026-04-15 11:43 | 39.84072 | 12.02179 | 37932 ft | 452 kts | 285° |
| 2026-04-15 11:44 | 39.85849 | 11.94331 | 37942 ft | 452 kts | 286° |
| 2026-04-15 11:44 | 39.87625 | 11.86465 | 37947 ft | 452 kts | 286° |
| 2026-04-15 11:45 | 39.89395 | 11.78590 | 37945 ft | 453 kts | 286° |
| 2026-04-15 11:45 | 39.91161 | 11.70711 | 37946 ft | 454 kts | 286° |
| 2026-04-15 11:46 | 39.92925 | 11.62811 | 37946 ft | 454 kts | 286° |
| 2026-04-15 11:46 | 39.94673 | 11.54954 | 37944 ft | 455 kts | 286° |
| 2026-04-15 11:47 | 39.96433 | 11.47017 | 37951 ft | 456 kts | 286° |
| 2026-04-15 11:47 | 39.98189 | 11.39067 | 37953 ft | 457 kts | 286° |
| 2026-04-15 11:48 | 39.99941 | 11.31107 | 37950 ft | 457 kts | 286° |
| 2026-04-15 11:48 | 40.01691 | 11.23128 | 37943 ft | 456 kts | 288° |
| 2026-04-15 11:49 | 40.03423 | 11.15200 | 37957 ft | 455 kts | 288° |
| 2026-04-15 11:49 | 40.05151 | 11.07263 | 37957 ft | 455 kts | 288° |
| 2026-04-15 11:50 | 40.06871 | 10.99331 | 37952 ft | 453 kts | 288° |
| 2026-04-15 11:50 | 40.08582 | 10.91418 | 37963 ft | 452 kts | 288° |
| 2026-04-15 11:51 | 40.10281 | 10.83527 | 37958 ft | 451 kts | 288° |
| 2026-04-15 11:51 | 40.11972 | 10.75647 | 37959 ft | 449 kts | 288° |
| 2026-04-15 11:52 | 40.13643 | 10.67833 | 37962 ft | 448 kts | 288° |
| 2026-04-15 11:52 | 40.15316 | 10.59985 | 37968 ft | 447 kts | 288° |
| 2026-04-15 11:53 | 40.17071 | 10.52199 | 37964 ft | 446 kts | 292° |
| 2026-04-15 11:53 | 40.19279 | 10.44646 | 37973 ft | 445 kts | 294° |
| 2026-04-15 11:54 | 40.21577 | 10.37133 | 37978 ft | 445 kts | 294° |
| 2026-04-15 11:54 | 40.23849 | 10.29586 | 37981 ft | 446 kts | 294° |
| 2026-04-15 11:55 | 40.26091 | 10.22015 | 37985 ft | 447 kts | 294° |
| 2026-04-15 11:55 | 40.28323 | 10.14417 | 37986 ft | 448 kts | 294° |
| 2026-04-15 11:56 | 40.30553 | 10.06795 | 37986 ft | 448 kts | 294° |
| 2026-04-15 11:56 | 40.32771 | 9.99200 | 37995 ft | 449 kts | 294° |
| 2026-04-15 11:57 | 40.36117 | 9.87701 | 37996 ft | 450 kts | 294° |
| 2026-04-15 11:58 | 40.38343 | 9.80024 | 38002 ft | 450 kts | 294° |
| 2026-04-15 11:58 | 40.40563 | 9.72343 | 37998 ft | 450 kts | 294° |
| 2026-04-15 11:59 | 40.42779 | 9.64654 | 38004 ft | 450 kts | 294° |
| 2026-04-15 11:59 | 40.44972 | 9.57022 | 38005 ft | 449 kts | 294° |
| 2026-04-15 12:00 | 40.47170 | 9.49352 | 38010 ft | 449 kts | 294° |
| 2026-04-15 12:00 | 40.49365 | 9.41669 | 38005 ft | 448 kts | 294° |
| 2026-04-15 12:01 | 40.51547 | 9.34005 | 38012 ft | 447 kts | 294° |
| 2026-04-15 12:01 | 40.53707 | 9.26401 | 38016 ft | 446 kts | 294° |
| 2026-04-15 12:02 | 40.55868 | 9.18770 | 38017 ft | 445 kts | 294° |
| 2026-04-15 12:02 | 40.58025 | 9.11128 | 38012 ft | 445 kts | 294° |
| 2026-04-15 12:03 | 40.60174 | 9.03495 | 38017 ft | 445 kts | 294° |
| 2026-04-15 12:03 | 40.62314 | 8.95869 | 38022 ft | 444 kts | 294° |
| 2026-04-15 12:04 | 40.64451 | 8.88231 | 38027 ft | 445 kts | 294° |
| 2026-04-15 12:04 | 40.66585 | 8.80580 | 38019 ft | 445 kts | 294° |
| 2026-04-15 12:05 | 40.68699 | 8.72979 | 38016 ft | 445 kts | 294° |
| 2026-04-15 12:05 | 40.70824 | 8.65315 | 38023 ft | 444 kts | 294° |
| 2026-04-15 12:06 | 40.72943 | 8.57652 | 38024 ft | 445 kts | 294° |
| 2026-04-15 12:06 | 40.75056 | 8.49986 | 38029 ft | 445 kts | 294° |
| 2026-04-15 12:07 | 40.76810 | 8.43603 | 38022 ft | 445 kts | 294° |
| 2026-04-15 12:07 | 40.78914 | 8.35924 | 38031 ft | 445 kts | 294° |
| 2026-04-15 12:08 | 40.81013 | 8.28243 | 38029 ft | 445 kts | 295° |
| 2026-04-15 12:08 | 40.83112 | 8.20536 | 38026 ft | 445 kts | 295° |
| 2026-04-15 12:09 | 40.85178 | 8.12832 | 38020 ft | 446 kts | 291° |
| 2026-04-15 12:09 | 40.86095 | 8.04706 | 38045 ft | 454 kts | 277° |
| 2026-04-15 12:10 | 40.86382 | 7.96380 | 38024 ft | 452 kts | 279° |
| 2026-04-15 12:10 | 40.86933 | 7.88137 | 38035 ft | 449 kts | 281° |
| 2026-04-15 12:11 | 40.87551 | 7.79928 | 38035 ft | 448 kts | 281° |
| 2026-04-15 12:11 | 40.88137 | 7.71733 | 38037 ft | 448 kts | 281° |
| 2026-04-15 12:12 | 40.88695 | 7.63544 | 38044 ft | 447 kts | 281° |
| 2026-04-15 12:12 | 40.89239 | 7.55356 | 38039 ft | 447 kts | 281° |
| 2026-04-15 12:13 | 40.89776 | 7.47172 | 38053 ft | 446 kts | 281° |
| 2026-04-15 12:13 | 40.90305 | 7.39039 | 38051 ft | 447 kts | 281° |
| 2026-04-15 12:14 | 40.90832 | 7.30836 | 38057 ft | 447 kts | 281° |
| 2026-04-15 12:14 | 40.91353 | 7.22649 | 38056 ft | 447 kts | 282° |
| 2026-04-15 12:15 | 40.91869 | 7.14454 | 38060 ft | 447 kts | 282° |
| 2026-04-15 12:15 | 40.92379 | 7.06256 | 38065 ft | 448 kts | 282° |
| 2026-04-15 12:16 | 40.92883 | 6.98047 | 38066 ft | 448 kts | 282° |
| 2026-04-15 12:16 | 40.93382 | 6.89836 | 38071 ft | 448 kts | 282° |
| 2026-04-15 12:17 | 40.93873 | 6.81635 | 38071 ft | 447 kts | 282° |
| 2026-04-15 12:17 | 40.94359 | 6.73431 | 38075 ft | 447 kts | 282° |
| 2026-04-15 12:18 | 40.94836 | 6.65297 | 38078 ft | 446 kts | 283° |
| 2026-04-15 12:18 | 40.95308 | 6.57127 | 38079 ft | 445 kts | 283° |
| 2026-04-15 12:19 | 40.95774 | 6.48964 | 38084 ft | 444 kts | 283° |
| 2026-04-15 12:19 | 40.96233 | 6.40844 | 38084 ft | 442 kts | 283° |
| 2026-04-15 12:20 | 40.96684 | 6.32736 | 38085 ft | 441 kts | 283° |
| 2026-04-15 12:20 | 40.97129 | 6.24653 | 38092 ft | 439 kts | 283° |
| 2026-04-15 12:21 | 40.97566 | 6.16606 | 38097 ft | 438 kts | 283° |
| 2026-04-15 12:21 | 40.97997 | 6.08584 | 38091 ft | 436 kts | 283° |
| 2026-04-15 12:22 | 40.98418 | 6.00630 | 38093 ft | 435 kts | 283° |
| 2026-04-15 12:22 | 40.98836 | 5.92637 | 38102 ft | 434 kts | 283° |
| 2026-04-15 12:23 | 40.99246 | 5.84681 | 38105 ft | 433 kts | 283° |
| 2026-04-15 12:23 | 40.99651 | 5.76726 | 38113 ft | 432 kts | 283° |
| 2026-04-15 12:24 | 41.00049 | 5.68792 | 38115 ft | 432 kts | 283° |
| 2026-04-15 12:24 | 41.00441 | 5.60861 | 38116 ft | 431 kts | 283° |
| 2026-04-15 12:25 | 41.00826 | 5.52985 | 38119 ft | 431 kts | 283° |
| 2026-04-15 12:25 | 41.01208 | 5.45062 | 38122 ft | 431 kts | 283° |
| 2026-04-15 12:26 | 41.01592 | 5.37079 | 37621 ft | 437 kts | 283° |
| 2026-04-15 12:26 | 41.01796 | 5.33097 | 37290 ft | 429 kts | 283° |
| 2026-04-15 12:26 | 41.02000 | 5.29165 | 36835 ft | 426 kts | 283° |
| 2026-04-15 12:26 | 41.02204 | 5.25276 | 36455 ft | 422 kts | 283° |
| 2026-04-15 12:27 | 41.02406 | 5.21418 | 36066 ft | 418 kts | 283° |
| 2026-04-15 12:27 | 41.02604 | 5.17594 | 35674 ft | 415 kts | 283° |
| 2026-04-15 12:27 | 41.02798 | 5.13853 | 35283 ft | 412 kts | 283° |
| 2026-04-15 12:27 | 41.02990 | 5.10085 | 34886 ft | 408 kts | 283° |
| 2026-04-15 12:28 | 41.03179 | 5.06357 | 34498 ft | 405 kts | 283° |
| 2026-04-15 12:28 | 41.03368 | 5.02641 | 34087 ft | 405 kts | 283° |
| 2026-04-15 12:28 | 41.03558 | 4.98904 | 33655 ft | 406 kts | 283° |
| 2026-04-15 12:28 | 41.03744 | 4.95172 | 33245 ft | 406 kts | 283° |
| 2026-04-15 12:29 | 41.03927 | 4.91453 | 32833 ft | 404 kts | 283° |
| 2026-04-15 12:29 | 41.04107 | 4.87755 | 32440 ft | 401 kts | 283° |
| 2026-04-15 12:29 | 41.04286 | 4.84080 | 32049 ft | 398 kts | 283° |
| 2026-04-15 12:29 | 41.04463 | 4.80424 | 31671 ft | 396 kts | 283° |
| 2026-04-15 12:30 | 41.04661 | 4.76806 | 31290 ft | 391 kts | 285° |
| 2026-04-15 12:30 | 41.05015 | 4.73264 | 30913 ft | 386 kts | 288° |
| 2026-04-15 12:30 | 41.05426 | 4.69770 | 30549 ft | 383 kts | 288° |
| 2026-04-15 12:30 | 41.05834 | 4.66284 | 30174 ft | 381 kts | 287° |
| 2026-04-15 12:31 | 41.06219 | 4.62800 | 29611 ft | 383 kts | 287° |
| 2026-04-15 12:31 | 41.06583 | 4.59322 | 29223 ft | 380 kts | 286° |
| 2026-04-15 12:31 | 41.06941 | 4.55866 | 28815 ft | 377 kts | 286° |
| 2026-04-15 12:31 | 41.07297 | 4.52434 | 28438 ft | 374 kts | 286° |
| 2026-04-15 12:32 | 41.07652 | 4.49032 | 28068 ft | 371 kts | 286° |
| 2026-04-15 12:32 | 41.08012 | 4.45652 | 27675 ft | 369 kts | 286° |
| 2026-04-15 12:32 | 41.08371 | 4.42292 | 27311 ft | 367 kts | 286° |
| 2026-04-15 12:32 | 41.08729 | 4.38952 | 26950 ft | 365 kts | 286° |
| 2026-04-15 12:33 | 41.09084 | 4.35628 | 26587 ft | 363 kts | 286° |
| 2026-04-15 12:33 | 41.09437 | 4.32314 | 26229 ft | 362 kts | 286° |
| 2026-04-15 12:33 | 41.09787 | 4.29015 | 25867 ft | 361 kts | 285° |
| 2026-04-15 12:33 | 41.10131 | 4.25760 | 25514 ft | 360 kts | 285° |
| 2026-04-15 12:34 | 41.10478 | 4.22472 | 25154 ft | 359 kts | 285° |
| 2026-04-15 12:34 | 41.10823 | 4.19192 | 24794 ft | 359 kts | 285° |
| 2026-04-15 12:34 | 41.11167 | 4.15909 | 24421 ft | 359 kts | 285° |
| 2026-04-15 12:34 | 41.11509 | 4.12633 | 24038 ft | 359 kts | 285° |
| 2026-04-15 12:35 | 41.11851 | 4.09354 | 23671 ft | 359 kts | 285° |
| 2026-04-15 12:35 | 41.12192 | 4.06070 | 23251 ft | 359 kts | 285° |
| 2026-04-15 12:35 | 41.12530 | 4.02798 | 22859 ft | 357 kts | 284° |
| 2026-04-15 12:35 | 41.12864 | 3.99547 | 22484 ft | 354 kts | 284° |
| 2026-04-15 12:36 | 41.13195 | 3.96325 | 22119 ft | 351 kts | 284° |
| 2026-04-15 12:36 | 41.13522 | 3.93129 | 21770 ft | 349 kts | 284° |
| 2026-04-15 12:36 | 41.13848 | 3.89951 | 21414 ft | 346 kts | 284° |
| 2026-04-15 12:36 | 41.14170 | 3.86798 | 21065 ft | 344 kts | 284° |
| 2026-04-15 12:37 | 41.14490 | 3.83662 | 20716 ft | 342 kts | 284° |
| 2026-04-15 12:37 | 41.14806 | 3.80549 | 20369 ft | 340 kts | 284° |
| 2026-04-15 12:37 | 41.15120 | 3.77446 | 20024 ft | 338 kts | 283° |
| 2026-04-15 12:37 | 41.15432 | 3.74358 | 19555 ft | 340 kts | 283° |
| 2026-04-15 12:38 | 41.15750 | 3.71217 | 19087 ft | 343 kts | 283° |
| 2026-04-15 12:38 | 41.16065 | 3.68075 | 18714 ft | 342 kts | 283° |
| 2026-04-15 12:38 | 41.16377 | 3.64947 | 18371 ft | 340 kts | 283° |
| 2026-04-15 12:38 | 41.16685 | 3.61843 | 17987 ft | 338 kts | 282° |
| 2026-04-15 12:39 | 41.16992 | 3.58759 | 17585 ft | 337 kts | 282° |
| 2026-04-15 12:39 | 41.17298 | 3.55676 | 17152 ft | 337 kts | 282° |
| 2026-04-15 12:39 | 41.17604 | 3.52591 | 16672 ft | 338 kts | 282° |
| 2026-04-15 12:39 | 41.17911 | 3.49486 | 16175 ft | 340 kts | 281° |
| 2026-04-15 12:40 | 41.18218 | 3.46370 | 15710 ft | 341 kts | 281° |
| 2026-04-15 12:40 | 41.18519 | 3.43298 | 15311 ft | 339 kts | 281° |
| 2026-04-15 12:40 | 41.18821 | 3.40203 | 14974 ft | 336 kts | 281° |
| 2026-04-15 12:40 | 41.19117 | 3.37152 | 14715 ft | 331 kts | 281° |
| 2026-04-15 12:41 | 41.19409 | 3.34143 | 14459 ft | 325 kts | 281° |
| 2026-04-15 12:41 | 41.19695 | 3.31196 | 14239 ft | 319 kts | 281° |
| 2026-04-15 12:41 | 41.19976 | 3.28297 | 14017 ft | 314 kts | 281° |
| 2026-04-15 12:41 | 41.20251 | 3.25451 | 13786 ft | 308 kts | 281° |
| 2026-04-15 12:42 | 41.20520 | 3.22657 | 13573 ft | 302 kts | 281° |
| 2026-04-15 12:42 | 41.20783 | 3.19917 | 13351 ft | 296 kts | 280° |
| 2026-04-15 12:42 | 41.21041 | 3.17224 | 13130 ft | 291 kts | 280° |
| 2026-04-15 12:42 | 41.21287 | 3.14536 | 12715 ft | 295 kts | 280° |
| 2026-04-15 12:43 | 41.21528 | 3.11833 | 12415 ft | 295 kts | 279° |
| 2026-04-15 12:43 | 41.21766 | 3.09130 | 12094 ft | 294 kts | 279° |
| 2026-04-15 12:43 | 41.22003 | 3.06439 | 11779 ft | 292 kts | 279° |
| 2026-04-15 12:43 | 41.22240 | 3.03763 | 11474 ft | 291 kts | 279° |
| 2026-04-15 12:44 | 41.22475 | 3.01098 | 11167 ft | 290 kts | 279° |
| 2026-04-15 12:44 | 41.22708 | 2.98443 | 10858 ft | 288 kts | 279° |
| 2026-04-15 12:44 | 41.22940 | 2.95801 | 10557 ft | 287 kts | 279° |
| 2026-04-15 12:44 | 41.23167 | 2.93206 | 10259 ft | 286 kts | 279° |
| 2026-04-15 12:45 | 41.23397 | 2.90580 | 9942 ft | 285 kts | 279° |
| 2026-04-15 12:45 | 41.23624 | 2.87967 | 9609 ft | 284 kts | 279° |
| 2026-04-15 12:45 | 41.23850 | 2.85361 | 9290 ft | 283 kts | 279° |
| 2026-04-15 12:45 | 41.24075 | 2.82768 | 8988 ft | 281 kts | 279° |
| 2026-04-15 12:46 | 41.24297 | 2.80197 | 8686 ft | 279 kts | 279° |
| 2026-04-15 12:46 | 41.24517 | 2.77644 | 8393 ft | 277 kts | 279° |
| 2026-04-15 12:46 | 41.24736 | 2.75105 | 8093 ft | 276 kts | 279° |
| 2026-04-15 12:46 | 41.24953 | 2.72577 | 7809 ft | 274 kts | 279° |
| 2026-04-15 12:47 | 41.25167 | 2.70069 | 7521 ft | 272 kts | 279° |
| 2026-04-15 12:47 | 41.25380 | 2.67575 | 7234 ft | 271 kts | 279° |
| 2026-04-15 12:47 | 41.25815 | 2.65204 | 6941 ft | 267 kts | 296° |
| 2026-04-15 12:47 | 41.26628 | 2.63018 | 6680 ft | 264 kts | 298° |
| 2026-04-15 12:48 | 41.27467 | 2.60846 | 6367 ft | 263 kts | 298° |
| 2026-04-15 12:48 | 41.28311 | 2.58659 | 5935 ft | 267 kts | 298° |
| 2026-04-15 12:48 | 41.29150 | 2.56463 | 5621 ft | 266 kts | 297° |
| 2026-04-15 12:48 | 41.29984 | 2.54266 | 5330 ft | 265 kts | 297° |
| 2026-04-15 12:49 | 41.30810 | 2.52078 | 5026 ft | 264 kts | 297° |
| 2026-04-15 12:49 | 41.31629 | 2.49900 | 4723 ft | 263 kts | 296° |
| 2026-04-15 12:49 | 41.32443 | 2.47727 | 4498 ft | 259 kts | 296° |
| 2026-04-15 12:49 | 41.33232 | 2.45620 | 4379 ft | 251 kts | 296° |
| 2026-04-15 12:50 | 41.33996 | 2.43575 | 4265 ft | 243 kts | 296° |
| 2026-04-15 12:50 | 41.34735 | 2.41597 | 4156 ft | 235 kts | 296° |
| 2026-04-15 12:50 | 41.35448 | 2.39684 | 4055 ft | 226 kts | 296° |
| 2026-04-15 12:50 | 41.36135 | 2.37843 | 3962 ft | 218 kts | 296° |
| 2026-04-15 12:51 | 41.36807 | 2.36048 | 3769 ft | 215 kts | 295° |
| 2026-04-15 12:51 | 41.37465 | 2.34269 | 3561 ft | 213 kts | 292° |
| 2026-04-15 12:51 | 41.37655 | 2.32390 | 3515 ft | 207 kts | 257° |
| 2026-04-15 12:51 | 41.37236 | 2.30517 | 3261 ft | 213 kts | 252° |
| 2026-04-15 12:52 | 41.36783 | 2.28681 | 2995 ft | 210 kts | 249° |
| 2026-04-15 12:52 | 41.36229 | 2.26901 | 2719 ft | 205 kts | 245° |
| 2026-04-15 12:52 | 41.35646 | 2.25192 | 2444 ft | 200 kts | 244° |
| 2026-04-15 12:52 | 41.35072 | 2.23527 | 2178 ft | 195 kts | 244° |
| 2026-04-15 12:53 | 41.34517 | 2.21907 | 1915 ft | 190 kts | 244° |
| 2026-04-15 12:53 | 41.33977 | 2.20331 | 1661 ft | 185 kts | 244° |
| 2026-04-15 12:53 | 41.33449 | 2.18788 | 1420 ft | 180 kts | 244° |
| 2026-04-15 12:53 | 41.32946 | 2.17318 | 1167 ft | 169 kts | 244° |
| 2026-04-15 12:54 | 41.32485 | 2.15965 | 956 ft | 153 kts | 243° |
| 2026-04-15 12:54 | 41.32053 | 2.14706 | 780 ft | 148 kts | 243° |
| 2026-04-15 12:54 | 41.31629 | 2.13467 | 564 ft | 143 kts | 243° |
| 2026-04-15 12:54 | 41.31217 | 2.12254 | 368 ft | 143 kts | 242° |
| 2026-04-15 12:55 | 41.30807 | 2.11068 | 195 ft | 141 kts | 243° |
| 2026-04-15 12:55 | 41.30403 | 2.09866 | 21 ft | 138 kts | 242° |
| 2026-04-15 12:55 | 41.30066 | 2.08891 | 16 ft | 88 kts | 245° |
| 2026-04-15 12:55 | 41.29927 | 2.08430 | 22 ft | 36 kts | 260° |
| 2026-04-15 12:56 | 41.29936 | 2.08185 | 19 ft | 22 kts | 275° |
| 2026-04-15 12:56 | 41.29950 | 2.08055 | 18 ft | 21 kts | 300° |
| 2026-04-15 12:56 | 41.30030 | 2.08061 | 19 ft | 12 kts | 66° |
| 2026-04-15 12:56 | 41.30073 | 2.08187 | 23 ft | 11 kts | 65° |
| 2026-04-15 12:57 | 41.30139 | 2.08208 | 20 ft | 12 kts | 336° |
| 2026-04-15 12:57 | 41.30221 | 2.08162 | 18 ft | 13 kts | 346° |
| 2026-04-15 12:57 | 41.30283 | 2.08161 | 18 ft | 5 kts | 25° |
| 2026-04-15 12:57 | 41.30315 | 2.08180 | 20 ft | 5 kts | 25° |
| 2026-04-15 12:58 | 41.30326 | 2.08187 | 19 ft | 0 kts | 24° |